createdAt,value
2023-05-17T00:02:50.242Z,13.28
2023-05-17T00:05:56.282Z,13.24
2023-05-17T00:09:04.248Z,13.12
2023-05-17T00:12:10.516Z,13.15
2023-05-17T00:15:16.744Z,13.01
2023-05-17T00:18:22.840Z,12.78
2023-05-17T00:21:28.866Z,12.96
2023-05-17T00:24:36.195Z,12.86
2023-05-17T00:27:42.477Z,12.86
2023-05-17T00:30:48.312Z,12.71
2023-05-17T00:33:54.405Z,12.77
2023-05-17T00:37:00.394Z,12.65
2023-05-17T00:40:09.403Z,12.68
2023-05-17T00:43:15.556Z,12.79
2023-05-17T00:46:21.641Z,12.97
2023-05-17T00:49:27.978Z,12.64
2023-05-17T00:52:34.452Z,12.81
2023-05-17T00:55:42.046Z,12.94
2023-05-17T00:58:48.471Z,12.84
2023-05-17T01:01:56.081Z,12.82
2023-05-17T01:05:02.456Z,12.72
2023-05-17T01:08:08.669Z,12.69
2023-05-17T01:11:31.185Z,12.52
2023-05-17T01:14:50.054Z,12.58
2023-05-17T01:18:12.564Z,12.47
2023-05-17T01:21:38.162Z,12.47
2023-05-17T01:24:54.311Z,12.44
2023-05-17T01:28:05.066Z,12.26
2023-05-17T01:31:12.645Z,12.44
2023-05-17T01:34:26.570Z,12.30
2023-05-17T01:37:32.756Z,12.05
2023-05-17T01:40:45.320Z,11.90
2023-05-17T01:44:01.414Z,12.03
2023-05-17T01:47:13.232Z,12.36
2023-05-17T01:50:24.874Z,12.22
2023-05-17T01:53:38.703Z,12.24
2023-05-17T01:56:49.279Z,12.31
2023-05-17T01:59:58.898Z,12.22
2023-05-17T02:03:05.211Z,12.08
2023-05-17T02:06:11.817Z,11.92
2023-05-17T02:09:17.951Z,11.71
2023-05-17T02:12:24.315Z,11.51
2023-05-17T02:15:32.213Z,11.30
2023-05-17T02:18:40.545Z,11.65
2023-05-17T02:21:46.999Z,11.67
2023-05-17T02:24:52.999Z,11.94
2023-05-17T02:27:58.991Z,11.84
2023-05-17T02:31:06.447Z,11.58
2023-05-17T02:34:13.108Z,11.59
2023-05-17T02:37:19.500Z,11.58
2023-05-17T02:40:25.561Z,11.62
2023-05-17T02:43:31.790Z,11.66
2023-05-17T02:46:39.673Z,11.58
2023-05-17T02:49:46.014Z,11.38
2023-05-17T02:52:52.739Z,11.49
2023-05-17T02:55:59.178Z,11.36
2023-05-17T02:59:05.472Z,11.41
2023-05-17T03:02:13.101Z,11.36
2023-05-17T03:05:19.405Z,11.45
2023-05-17T03:08:25.235Z,11.31
2023-05-17T03:11:31.948Z,11.25
2023-05-17T03:14:38.354Z,11.09
2023-05-17T03:17:45.808Z,11.00
2023-05-17T03:20:52.150Z,11.13
2023-05-17T03:23:58.366Z,10.99
2023-05-17T03:27:05.118Z,11.24
2023-05-17T03:30:12.097Z,11.33
2023-05-17T03:33:19.922Z,11.14
2023-05-17T03:36:26.139Z,10.95
2023-05-17T03:39:32.529Z,11.19
2023-05-17T03:42:38.691Z,10.87
2023-05-17T03:45:45.056Z,10.12
2023-05-17T03:48:52.783Z,9.72
2023-05-17T03:51:58.821Z,9.94
2023-05-17T03:55:05.729Z,10.09
2023-05-17T03:58:12.066Z,10.30
2023-05-17T04:01:20.457Z,10.68
2023-05-17T04:04:28.557Z,10.55
2023-05-17T04:07:34.693Z,10.97
2023-05-17T04:10:42.214Z,10.98
2023-05-17T04:13:48.780Z,11.15
2023-05-17T04:16:55.202Z,10.66
2023-05-17T04:20:02.829Z,10.78
2023-05-17T04:23:10.511Z,10.79
2023-05-17T04:26:16.991Z,10.98
2023-05-17T04:29:23.017Z,11.20
2023-05-17T04:32:29.685Z,11.65
2023-05-17T04:35:38.496Z,11.46
2023-05-17T04:38:44.644Z,11.44
2023-05-17T04:41:50.716Z,11.53
2023-05-17T04:44:57.923Z,11.86
2023-05-17T04:48:04.399Z,11.85
2023-05-17T04:51:12.080Z,11.86
2023-05-17T04:54:18.524Z,12.13
2023-05-17T04:57:24.650Z,11.85
2023-05-17T05:00:31.280Z,12.16
2023-05-17T05:03:37.959Z,12.50
2023-05-17T05:06:45.896Z,12.54
2023-05-17T05:09:52.062Z,12.03
2023-05-17T05:12:58.250Z,12.42
2023-05-17T05:16:05.057Z,12.70
2023-05-17T05:19:11.673Z,12.85
2023-05-17T05:22:19.691Z,12.41
2023-05-17T05:25:26.283Z,12.67
2023-05-17T05:28:32.598Z,12.92
2023-05-17T05:31:38.548Z,12.59
2023-05-17T05:34:44.394Z,12.68
2023-05-17T05:37:51.688Z,13.43
2023-05-17T05:40:59.956Z,13.86
2023-05-17T05:44:06.597Z,14.14
2023-05-17T05:47:15.159Z,13.47
2023-05-17T05:50:21.433Z,13.13
2023-05-17T05:53:29.122Z,12.97
2023-05-17T05:56:35.333Z,13.63
2023-05-17T05:59:41.393Z,14.28
2023-05-17T06:02:47.718Z,14.31
2023-05-17T06:05:54.129Z,14.91
2023-05-17T06:09:01.640Z,14.98
2023-05-17T06:12:08.557Z,15.37
2023-05-17T06:15:14.948Z,14.81
2023-05-17T06:18:21.280Z,14.68
2023-05-17T06:21:27.631Z,15.35
2023-05-17T06:24:35.361Z,15.20
2023-05-17T06:27:41.913Z,14.57
2023-05-17T06:30:47.994Z,14.70
2023-05-17T06:33:54.300Z,15.71
2023-05-17T06:37:00.439Z,15.72
2023-05-17T06:40:16.727Z,15.96
2023-05-17T06:43:24.009Z,15.89
2023-05-17T06:46:30.178Z,16.82
2023-05-17T06:49:36.554Z,16.80
2023-05-17T06:52:42.939Z,16.40
2023-05-17T06:55:52.525Z,16.47
2023-05-17T06:58:58.838Z,16.10
2023-05-17T07:02:05.987Z,16.87
2023-05-17T07:05:12.355Z,16.16
2023-05-17T07:08:18.894Z,16.55
2023-05-17T07:11:26.890Z,16.49
2023-05-17T07:14:33.449Z,16.60
2023-05-17T07:17:39.942Z,16.88
2023-05-17T07:20:46.400Z,17.21
2023-05-17T07:23:52.622Z,16.88
2023-05-17T07:27:00.237Z,16.30
2023-05-17T07:30:08.283Z,15.85
2023-05-17T07:33:14.669Z,16.16
2023-05-17T07:36:20.886Z,16.87
2023-05-17T07:39:27.034Z,16.85
2023-05-17T07:42:34.691Z,16.63
2023-05-17T07:45:40.819Z,15.98
2023-05-17T07:48:47.031Z,16.16
2023-05-17T07:51:53.607Z,16.29
2023-05-17T07:54:59.601Z,15.84
2023-05-17T07:58:07.365Z,15.50
2023-05-17T08:01:13.977Z,15.51
2023-05-17T08:04:20.487Z,15.50
2023-05-17T08:07:26.935Z,14.95
2023-05-17T08:10:35.869Z,14.16
2023-05-17T08:13:44.389Z,14.02
2023-05-17T08:16:51.941Z,13.87
2023-05-17T08:19:58.176Z,13.98
2023-05-17T08:23:04.587Z,14.32
2023-05-17T08:26:12.659Z,14.50
2023-05-17T08:29:20.465Z,14.74
2023-05-17T08:32:27.518Z,14.71
2023-05-17T08:35:34.127Z,14.30
2023-05-17T08:38:41.452Z,14.52
2023-05-17T08:41:48.436Z,14.92
2023-05-17T08:44:57.043Z,15.18
2023-05-17T08:48:03.587Z,15.36
2023-05-17T08:51:11.787Z,15.93
2023-05-17T08:54:18.630Z,16.37
2023-05-17T08:57:28.324Z,16.83
2023-05-17T09:00:37.654Z,16.64
2023-05-17T09:03:48.651Z,17.09
2023-05-17T09:06:54.874Z,17.35
2023-05-17T09:10:01.005Z,17.30
2023-05-17T09:13:06.988Z,17.60
2023-05-17T09:16:17.858Z,18.12
2023-05-17T09:19:24.577Z,19.07
2023-05-17T09:22:31.204Z,19.25
2023-05-17T09:25:38.340Z,18.62
2023-05-17T09:28:44.904Z,18.02
2023-05-17T09:31:52.626Z,18.39
2023-05-17T09:35:02.800Z,17.59
2023-05-17T09:38:10.267Z,18.37
2023-05-17T09:41:16.796Z,18.61
2023-05-17T09:44:23.538Z,18.58
2023-05-17T09:47:31.975Z,17.84
2023-05-17T09:50:38.324Z,17.12
2023-05-17T09:53:44.673Z,17.14
2023-05-17T09:56:55.199Z,17.33
2023-05-17T10:00:01.569Z,17.30
2023-05-17T10:03:10.625Z,16.82
2023-05-17T10:06:33.225Z,16.40
2023-05-17T10:09:47.483Z,16.68
2023-05-17T10:12:54.969Z,16.60
2023-05-17T10:16:02.472Z,16.60
2023-05-17T10:19:12.594Z,17.67
2023-05-17T10:22:23.333Z,17.36
2023-05-17T10:25:31.330Z,18.62
2023-05-17T10:28:38.661Z,19.64
2023-05-17T10:31:46.671Z,19.44
2023-05-17T10:35:09.394Z,19.18
2023-05-17T10:38:18.324Z,19.00
2023-05-17T10:41:27.709Z,18.86
2023-05-17T10:44:35.030Z,18.86
2023-05-17T10:47:42.918Z,18.92
2023-05-17T10:51:01.032Z,19.03
2023-05-17T10:54:13.180Z,19.11
2023-05-17T10:57:46.817Z,18.75
2023-05-17T11:00:57.297Z,19.09
2023-05-17T11:04:22.492Z,19.43
2023-05-17T11:07:32.932Z,19.76
2023-05-17T11:10:39.150Z,19.26
2023-05-17T11:13:47.568Z,19.38
2023-05-17T11:16:58.533Z,19.76
2023-05-17T11:20:12.282Z,20.10
2023-05-17T11:23:24.404Z,21.78
2023-05-17T11:26:35.765Z,22.33
2023-05-17T11:29:42.472Z,21.49
2023-05-17T11:32:50.798Z,21.36
2023-05-17T11:35:57.723Z,20.63
2023-05-17T11:39:17.563Z,20.44
2023-05-17T11:42:26.733Z,19.57
2023-05-17T11:45:43.760Z,19.59
2023-05-17T11:48:52.475Z,18.73
2023-05-17T11:51:59.053Z,18.99
2023-05-17T11:55:07.634Z,18.99
2023-05-17T11:58:16.530Z,19.15
2023-05-17T12:01:22.789Z,18.88
2023-05-17T12:04:30.149Z,18.86
2023-05-17T12:07:38.673Z,18.59
2023-05-17T12:10:51.974Z,18.11
2023-05-17T12:13:58.660Z,18.15
2023-05-17T12:17:09.284Z,18.22
2023-05-17T12:20:17.076Z,17.63
2023-05-17T12:23:32.344Z,17.60
2023-05-17T12:26:44.225Z,17.79
2023-05-17T12:29:50.302Z,17.67
2023-05-17T12:32:56.739Z,17.46
2023-05-17T12:36:04.455Z,17.65
2023-05-17T12:39:12.453Z,17.70
2023-05-17T12:42:20.485Z,17.33
2023-05-17T12:45:27.146Z,17.33
2023-05-17T12:48:34.961Z,16.90
2023-05-17T12:51:43.463Z,16.27
2023-05-17T12:54:50.552Z,16.37
2023-05-17T12:57:58.357Z,16.31
2023-05-17T13:01:07.203Z,16.22
2023-05-17T13:04:14.442Z,15.78
2023-05-17T13:07:25.027Z,16.00
2023-05-17T13:10:31.577Z,16.26
2023-05-17T13:13:39.605Z,16.11
2023-05-17T13:16:47.265Z,15.85
2023-05-17T13:19:53.884Z,15.28
2023-05-17T13:23:00.377Z,14.49
2023-05-17T13:26:06.462Z,14.30
2023-05-17T13:29:14.332Z,14.11
2023-05-17T13:32:20.788Z,13.89
2023-05-17T13:35:26.988Z,14.12
2023-05-17T13:38:33.222Z,13.53
2023-05-17T13:41:39.674Z,13.42
2023-05-17T13:44:47.493Z,13.37
2023-05-17T13:47:53.992Z,13.30
2023-05-17T13:51:00.695Z,14.01
2023-05-17T13:54:07.916Z,14.28
2023-05-17T13:57:14.176Z,14.15
2023-05-17T14:00:22.502Z,13.97
2023-05-17T14:03:28.781Z,14.01
2023-05-17T14:06:34.933Z,13.58
2023-05-17T14:09:41.329Z,13.70
2023-05-17T14:12:48.030Z,13.76
2023-05-17T14:15:56.129Z,14.21
2023-05-17T14:19:04.781Z,14.08
2023-05-17T14:22:11.746Z,14.32
2023-05-17T14:25:18.366Z,14.09
2023-05-17T14:28:24.740Z,14.16
2023-05-17T14:31:32.642Z,14.02
2023-05-17T14:34:39.133Z,14.40
2023-05-17T14:37:45.535Z,14.37
2023-05-17T14:40:51.843Z,14.26
2023-05-17T14:43:58.117Z,14.25
2023-05-17T14:47:06.573Z,14.24
2023-05-17T14:50:13.007Z,14.34
2023-05-17T14:53:19.450Z,14.02
2023-05-17T14:56:26.950Z,13.91
2023-05-17T14:59:33.534Z,13.81
2023-05-17T15:02:41.434Z,13.84
2023-05-17T15:05:47.785Z,13.78
2023-05-17T15:08:55.048Z,13.99
2023-05-17T15:12:01.486Z,13.70
2023-05-17T15:15:09.004Z,13.87
2023-05-17T15:18:16.852Z,13.53
2023-05-17T15:21:23.102Z,13.78
2023-05-17T15:24:29.652Z,13.63
2023-05-17T15:27:35.501Z,13.81
2023-05-17T15:30:42.292Z,13.83
2023-05-17T15:33:49.830Z,13.73
2023-05-17T15:36:57.024Z,13.61
2023-05-17T15:40:09.388Z,13.90
2023-05-17T15:43:15.555Z,14.05
2023-05-17T15:46:22.073Z,13.83
2023-05-17T15:49:29.849Z,13.91
2023-05-17T15:52:36.276Z,14.04
2023-05-17T15:55:42.578Z,13.83
2023-05-17T15:58:49.299Z,13.86
2023-05-17T16:01:55.808Z,13.78
2023-05-17T16:05:04.264Z,13.95
2023-05-17T16:08:12.452Z,13.74
2023-05-17T16:11:18.736Z,13.75
2023-05-17T16:14:25.099Z,13.70
2023-05-17T16:17:31.616Z,13.58
2023-05-17T16:20:39.675Z,13.59
2023-05-17T16:23:46.620Z,13.89
2023-05-17T16:26:52.918Z,13.67
2023-05-17T16:29:59.364Z,13.53
2023-05-17T16:33:08.326Z,13.59
2023-05-17T16:36:16.538Z,13.59
2023-05-17T16:39:23.148Z,13.64
2023-05-17T16:42:31.129Z,13.59
2023-05-17T16:45:37.422Z,13.65
2023-05-17T16:48:43.632Z,13.56
2023-05-17T16:51:52.414Z,13.52
2023-05-17T16:55:03.514Z,13.32
2023-05-17T16:58:10.270Z,13.34
2023-05-17T17:01:17.054Z,13.52
2023-05-17T17:04:23.433Z,13.33
2023-05-17T17:07:31.113Z,13.32
2023-05-17T17:10:37.594Z,13.24
2023-05-17T17:13:43.824Z,13.24
2023-05-17T17:16:49.861Z,13.26
2023-05-17T17:19:56.490Z,13.18
2023-05-17T17:23:04.045Z,13.29
2023-05-17T17:26:11.380Z,13.11
2023-05-17T17:29:17.801Z,12.97
2023-05-17T17:32:24.035Z,13.00
2023-05-17T17:35:29.928Z,12.97
2023-05-17T17:38:37.225Z,12.96
2023-05-17T17:41:43.312Z,12.86
2023-05-17T17:44:49.433Z,12.89
2023-05-17T17:47:55.700Z,12.83
2023-05-17T17:51:01.841Z,12.69
2023-05-17T17:54:09.154Z,12.94
2023-05-17T17:57:15.598Z,12.75
2023-05-17T18:00:22.273Z,12.53
2023-05-17T18:03:28.599Z,12.32
2023-05-17T18:06:35.107Z,12.49
2023-05-17T18:09:43.050Z,12.51
2023-05-17T18:12:51.503Z,12.63
2023-05-17T18:15:58.008Z,12.57
2023-05-17T18:19:04.306Z,12.37
2023-05-17T18:22:10.468Z,12.41
2023-05-17T18:25:18.153Z,12.26
2023-05-17T18:28:38.038Z,12.01
2023-05-17T18:31:47.550Z,12.38
2023-05-17T18:34:55.096Z,12.55
2023-05-17T18:38:01.497Z,12.43
2023-05-17T18:41:08.809Z,12.46
2023-05-17T18:44:15.842Z,12.35
2023-05-17T18:47:23.587Z,12.37
2023-05-17T18:50:29.881Z,12.29
2023-05-17T18:53:37.030Z,12.19
2023-05-17T18:56:44.560Z,12.18
2023-05-17T18:59:50.978Z,12.28
2023-05-17T19:02:57.003Z,12.21
2023-05-17T19:06:03.198Z,12.06
2023-05-17T19:09:09.477Z,11.91
2023-05-17T19:12:17.316Z,12.01
2023-05-17T19:15:23.786Z,11.67
2023-05-17T19:18:30.356Z,11.69
2023-05-17T19:21:36.634Z,11.56
2023-05-17T19:24:42.862Z,11.72
2023-05-17T19:27:50.570Z,11.67
2023-05-17T19:30:57.109Z,11.58
2023-05-17T19:34:03.348Z,11.52
2023-05-17T19:37:09.546Z,11.57
2023-05-17T19:40:18.913Z,11.44
2023-05-17T19:43:27.244Z,11.44
2023-05-17T19:46:33.601Z,11.29
2023-05-17T19:49:40.167Z,11.37
2023-05-17T19:52:46.607Z,11.49
2023-05-17T19:55:52.707Z,11.53
2023-05-17T19:59:00.113Z,11.45
2023-05-17T20:02:06.802Z,11.17
2023-05-17T20:05:13.185Z,11.31
2023-05-17T20:08:19.333Z,11.09
2023-05-17T20:11:25.406Z,11.05
2023-05-17T20:14:32.854Z,11.08
2023-05-17T20:17:39.404Z,10.98
2023-05-17T20:20:45.952Z,11.21
2023-05-17T20:23:56.773Z,11.10
2023-05-17T20:27:03.055Z,11.16
2023-05-17T20:30:11.790Z,11.26
2023-05-17T20:33:21.537Z,10.96
2023-05-17T20:36:27.746Z,10.96
2023-05-17T20:39:33.711Z,10.89
2023-05-17T20:42:40.522Z,10.94
2023-05-17T20:45:49.985Z,11.00
2023-05-17T20:48:56.257Z,10.90
2023-05-17T20:52:03.597Z,10.85
2023-05-17T20:55:10.601Z,10.76
2023-05-17T20:58:16.964Z,10.85
2023-05-17T21:01:25.250Z,10.74
2023-05-17T21:04:31.387Z,10.77
2023-05-17T21:07:39.345Z,10.58
2023-05-17T21:10:46.594Z,10.58
2023-05-17T21:13:52.974Z,10.58
2023-05-17T21:17:02.129Z,10.61
2023-05-17T21:20:09.596Z,10.84
2023-05-17T21:23:15.889Z,10.78
2023-05-17T21:26:23.280Z,10.89
2023-05-17T21:29:29.462Z,10.82
2023-05-17T21:32:37.320Z,10.80
2023-05-17T21:35:43.831Z,10.96
2023-05-17T21:38:50.111Z,10.97
2023-05-17T21:41:56.153Z,10.97
2023-05-17T21:45:02.360Z,11.00
2023-05-17T21:48:10.463Z,10.93
2023-05-17T21:51:16.973Z,10.94
2023-05-17T21:54:25.670Z,10.43
2023-05-17T21:57:36.177Z,10.80
2023-05-17T22:00:43.628Z,10.51
2023-05-17T22:03:52.539Z,10.82
2023-05-17T22:06:58.848Z,11.04
2023-05-17T22:10:09.341Z,10.91
2023-05-17T22:13:18.441Z,11.03
2023-05-17T22:16:25.913Z,10.96
2023-05-17T22:19:36.764Z,10.72
2023-05-17T22:22:42.948Z,11.15
2023-05-17T22:25:49.404Z,10.95
2023-05-17T22:28:55.852Z,11.07
2023-05-17T22:32:02.059Z,11.06
2023-05-17T22:35:10.439Z,11.12
2023-05-17T22:38:16.692Z,10.89
2023-05-17T22:41:22.827Z,11.01
2023-05-17T22:44:28.930Z,11.03
2023-05-17T22:47:35.431Z,10.56
2023-05-17T22:50:43.185Z,10.57
2023-05-17T22:53:49.564Z,10.57
2023-05-17T22:56:55.725Z,10.39
2023-05-17T23:00:01.694Z,10.59
2023-05-17T23:03:07.921Z,9.98
2023-05-17T23:06:15.614Z,9.65
2023-05-17T23:09:23.247Z,9.94
2023-05-17T23:12:29.436Z,9.80
2023-05-17T23:15:37.263Z,9.52
2023-05-17T23:18:44.529Z,9.46
2023-05-17T23:21:52.235Z,9.75
2023-05-17T23:24:59.074Z,9.97
2023-05-17T23:28:05.738Z,10.25
2023-05-17T23:31:11.901Z,10.17
2023-05-17T23:34:18.841Z,10.09
2023-05-17T23:37:26.633Z,10.13
2023-05-17T23:40:32.935Z,10.01
2023-05-17T23:43:38.942Z,10.14
2023-05-17T23:46:45.225Z,10.27
2023-05-17T23:49:51.579Z,10.24
2023-05-17T23:53:03.503Z,10.26
2023-05-17T23:56:09.841Z,10.28
2023-05-17T23:59:15.743Z,10.39
